Time;durP1;ratioP1;P1;durP2;ratioP2;P2;SDS_P1;SDS_P2;PMS_P1;PMS_P2;Temp;Humidity;BMP_temperature;BMP_pressure;BME280_temperature;BME280_humidity;BME280_pressure;Samples;Min_cycle;Max_cycle;Signal;HPM_P1;HPM_P2
2022/04/11 00:00:29;;;;;;;2.90;2.00;;;;;2.70;101391.00;;;;4909991;29;20608;-68
2022/04/11 00:03:15;;;;;;;3.03;1.90;;;;;2.80;101400.00;;;;4909840;29;20238;-68
2022/04/11 00:06:01;;;;;;;2.57;1.67;;;;;2.80;101407.00;;;;4907586;29;20228;-67
2022/04/11 00:08:47;;;;;;;2.53;1.90;;;;;2.80;101396.00;;;;4910528;29;20597;-67
2022/04/11 00:11:33;;;;;;;1.77;1.60;;;;;2.70;101389.00;;;;4911814;28;20229;-68
2022/04/11 00:14:19;;;;;;;2.40;2.00;;;;;2.70;101393.00;;;;4914052;28;20398;-69
2022/04/11 00:17:07;;;;;;;1.67;1.57;;;;;2.70;101379.00;;;;4914671;28;20373;-69
2022/04/11 00:19:53;;;;;;;2.03;1.80;;;;;2.70;101397.00;;;;4914552;28;20289;-69
2022/04/11 00:22:39;;;;;;;5.80;1.90;;;;;2.80;101390.00;;;;4908354;29;20229;-69
2022/04/11 00:25:26;;;;;;;2.67;1.87;;;;;2.60;101363.00;;;;4908177;29;20749;-69
2022/04/11 00:28:13;;;;;;;2.03;1.73;;;;;2.70;101386.00;;;;4922402;28;20365;-68
2022/04/11 00:30:59;;;;;;;3.53;1.90;;;;;2.70;101398.00;;;;4913897;29;20653;-69
2022/04/11 00:33:47;;;;;;;2.23;2.03;;;;;2.60;101391.00;;;;4910943;29;20232;-69
2022/04/11 00:36:34;;;;;;;2.33;1.80;;;;;2.70;101386.00;;;;4924602;28;20285;-68
2022/04/11 00:39:20;;;;;;;4.10;2.07;;;;;2.60;101381.00;;;;4921147;28;20257;-69
2022/04/11 00:42:10;;;;;;;1.87;1.67;;;;;2.70;101380.00;;;;4919499;28;20598;-68
2022/04/11 00:44:56;;;;;;;3.20;1.90;;;;;2.70;101379.00;;;;4914807;29;20232;-68
2022/04/11 00:47:45;;;;;;;2.30;1.63;;;;;2.80;101386.00;;;;4910984;29;20293;-69
2022/04/11 00:50:32;;;;;;;1.80;1.70;;;;;2.70;101383.00;;;;4911919;29;20232;-70
2022/04/11 00:53:19;;;;;;;1.73;1.53;;;;;2.70;101388.00;;;;4924791;28;20229;-68
2022/04/11 00:56:07;;;;;;;2.27;1.80;;;;;2.70;101387.00;;;;4910775;29;20842;-69
2022/04/11 00:58:53;;;;;;;2.87;1.90;;;;;2.70;101384.00;;;;4928536;28;20256;-68
2022/04/11 01:01:40;;;;;;;1.80;1.70;;;;;2.60;101379.00;;;;4922644;28;20237;-68
2022/04/11 01:04:27;;;;;;;2.87;2.00;;;;;2.70;101366.00;;;;4913776;29;20612;-67
2022/04/11 01:07:20;;;;;;;6.83;1.70;;;;;2.60;101371.00;;;;4914648;28;20230;-68
2022/04/11 01:10:08;;;;;;;2.13;1.87;;;;;2.60;101366.00;;;;4919238;28;20585;-67
2022/04/11 01:12:54;;;;;;;1.97;1.87;;;;;2.60;101362.00;;;;4916067;29;20228;-66
2022/04/11 01:15:41;;;;;;;7.27;2.00;;;;;2.60;101366.00;;;;4911215;29;20233;-67
2022/04/11 01:18:27;;;;;;;2.97;2.20;;;;;2.60;101359.00;;;;4918750;28;20325;-67
2022/04/11 01:21:14;;;;;;;1.90;1.70;;;;;2.70;101356.00;;;;4912378;28;20231;-68
2022/04/11 01:24:01;;;;;;;2.30;1.80;;;;;2.40;101351.00;;;;4913234;29;20237;-69
2022/04/11 01:26:48;;;;;;;2.20;1.97;;;;;2.50;101364.00;;;;4923760;28;20301;-68
2022/04/11 01:29:34;;;;;;;7.00;2.00;;;;;2.50;101365.00;;;;4911875;29;20248;-68
2022/04/11 01:32:20;;;;;;;3.03;2.03;;;;;2.40;101358.00;;;;4924482;28;20284;-69
2022/04/11 01:35:18;;;;;;;1.97;1.83;;;;;2.50;101364.00;;;;4926723;28;20224;-68
2022/04/11 01:38:05;;;;;;;2.50;2.23;;;;;2.40;101356.00;;;;4928617;28;20236;-68
2022/04/11 01:40:53;;;;;;;3.90;2.63;;;;;2.50;101358.00;;;;4929835;28;20292;-67
2022/04/11 01:43:41;;;;;;;4.27;2.57;;;;;2.40;101351.00;;;;4924173;28;20357;-68
2022/04/11 01:46:27;;;;;;;2.73;2.40;;;;;2.40;101351.00;;;;4915798;29;20229;-67
2022/04/11 01:49:13;;;;;;;2.37;2.17;;;;;2.50;101338.00;;;;4911858;28;20721;-68
2022/04/11 01:52:00;;;;;;;2.80;2.40;;;;;2.40;101332.00;;;;4910398;29;20311;-69
2022/04/11 01:54:46;;;;;;;4.53;2.70;;;;;2.30;101339.00;;;;4910101;29;20245;-69
2022/04/11 01:57:53;;;;;;;2.30;2.10;;;;;2.40;101336.00;;;;4909894;29;20233;-69
2022/04/11 02:00:41;;;;;;;5.87;2.47;;;;;2.40;101347.00;;;;4929387;28;20237;-68
2022/04/11 02:03:27;;;;;;;2.47;2.27;;;;;2.40;101333.00;;;;4926151;28;20316;-68
2022/04/11 02:06:13;;;;;;;5.77;2.60;;;;;2.40;101340.00;;;;4913808;28;20220;-68
2022/04/11 02:09:00;;;;;;;3.07;2.20;;;;;2.40;101333.00;;;;4926559;28;20248;-67
2022/04/11 02:11:46;;;;;;;2.93;2.37;;;;;2.40;101323.00;;;;4928785;28;20228;-66
2022/04/11 02:14:33;;;;;;;3.80;2.57;;;;;2.30;101331.00;;;;4928953;28;20312;-68
2022/04/11 02:17:20;;;;;;;2.27;2.07;;;;;2.30;101320.00;;;;4921153;28;20336;-68
2022/04/11 02:20:11;;;;;;;6.70;2.57;;;;;2.40;101322.00;;;;4928036;28;20265;-68
2022/04/11 02:22:59;;;;;;;2.97;2.43;;;;;2.40;101319.00;;;;4928969;28;20240;-68
2022/04/11 02:25:45;;;;;;;3.80;2.40;;;;;2.30;101312.00;;;;4928861;28;20262;-69
2022/04/11 02:28:31;;;;;;;4.47;2.33;;;;;2.30;101317.00;;;;4925767;28;20320;-69
2022/04/11 02:31:19;;;;;;;2.80;2.10;;;;;2.30;101309.00;;;;4909729;29;20603;-68
2022/04/11 02:34:05;;;;;;;2.47;2.03;;;;;2.30;101302.00;;;;4911552;29;20228;-68
2022/04/11 02:36:52;;;;;;;3.77;2.50;;;;;2.20;101310.00;;;;4914519;29;20333;-68
2022/04/11 02:39:38;;;;;;;2.77;2.00;;;;;2.30;101314.00;;;;4912680;28;20741;-67
2022/04/11 02:42:25;;;;;;;2.80;2.07;;;;;2.20;101309.00;;;;4914808;28;20316;-68
2022/04/11 02:45:13;;;;;;;6.10;2.43;;;;;2.20;101319.00;;;;4914563;28;20353;-68
2022/04/11 02:48:00;;;;;;;3.50;2.40;;;;;2.20;101311.00;;;;4916126;28;20237;-69
2022/04/11 02:50:47;;;;;;;4.07;2.50;;;;;2.20;101322.00;;;;4920439;28;20231;-68
2022/04/11 02:53:33;;;;;;;3.63;2.80;;;;;2.00;101326.00;;;;4916958;29;20757;-68
2022/04/11 02:56:19;;;;;;;4.03;2.60;;;;;2.20;101320.00;;;;4921093;28;20860;-68
2022/04/11 02:59:05;;;;;;;3.67;2.50;;;;;2.20;101318.00;;;;4915046;29;20751;-68
2022/04/11 03:01:52;;;;;;;3.43;2.67;;;;;2.20;101325.00;;;;4914725;28;20242;-67
2022/04/11 03:04:40;;;;;;;4.40;3.00;;;;;2.20;101322.00;;;;4910143;29;20244;-68
2022/04/11 03:07:27;;;;;;;5.97;3.40;;;;;2.20;101324.00;;;;4914617;29;20252;-67
2022/04/11 03:10:14;;;;;;;4.20;2.83;;;;;2.20;101332.00;;;;4916682;28;20723;-68
2022/04/11 03:13:00;;;;;;;4.70;3.00;;;;;2.20;101338.00;;;;4909219;29;20967;-68
2022/04/11 03:15:46;;;;;;;3.80;2.90;;;;;2.00;101326.00;;;;4909199;29;20350;-68
2022/04/11 03:18:34;;;;;;;4.60;2.90;;;;;2.10;101334.00;;;;4918533;28;20290;-68
2022/04/11 03:21:22;;;;;;;3.27;2.87;;;;;2.00;101329.00;;;;4920866;28;20227;-67
2022/04/11 03:24:08;;;;;;;4.87;2.93;;;;;2.00;101306.00;;;;4925252;28;20228;-67
2022/04/11 03:26:54;;;;;;;5.03;3.27;;;;;2.00;101323.00;;;;4927558;28;20300;-66
2022/04/11 03:29:41;;;;;;;5.07;2.70;;;;;1.90;101322.00;;;;4927730;28;20648;-63
2022/04/11 03:32:27;;;;;;;4.37;3.33;;;;;1.90;101320.00;;;;4921360;28;20229;-68
2022/04/11 03:35:14;;;;;;;4.17;2.97;;;;;1.90;101326.00;;;;4927471;28;20648;-66
2022/04/11 03:38:01;;;;;;;5.87;2.87;;;;;1.90;101325.00;;;;4909947;29;20983;-67
2022/04/11 03:40:47;;;;;;;3.20;2.50;;;;;1.90;101323.00;;;;4908592;29;20249;-67
2022/04/11 03:43:33;;;;;;;5.50;3.03;;;;;1.80;101321.00;;;;4925532;28;20232;-63
2022/04/11 03:46:20;;;;;;;4.30;2.73;;;;;1.80;101320.00;;;;4919909;28;20264;-68
2022/04/11 03:49:07;;;;;;;6.00;3.03;;;;;1.90;101267.00;;;;4926977;28;20312;-69
2022/04/11 03:51:53;;;;;;;3.87;2.80;;;;;1.90;101323.00;;;;4917048;28;20234;-68
2022/04/11 03:54:40;;;;;;;4.97;2.77;;;;;1.80;101320.00;;;;4927119;28;20729;-68
2022/04/11 03:57:27;;;;;;;3.73;2.60;;;;;1.90;101326.00;;;;4919767;28;20315;-68
2022/04/11 04:00:14;;;;;;;5.43;2.80;;;;;1.80;101316.00;;;;4910343;29;20294;-68
2022/04/11 04:03:06;;;;;;;5.30;3.07;;;;;1.80;101314.00;;;;4908610;29;20409;-67
2022/04/11 04:05:52;;;;;;;3.27;2.97;;;;;1.70;101305.00;;;;4908150;29;20701;-68
2022/04/11 04:08:38;;;;;;;3.93;3.17;;;;;1.70;101310.00;;;;4927172;28;20594;-68
2022/04/11 04:11:26;;;;;;;4.57;3.00;;;;;1.70;101305.00;;;;4920478;28;20309;-68
2022/04/11 04:14:12;;;;;;;3.13;2.60;;;;;1.70;101305.00;;;;4927015;28;20232;-67
2022/04/11 04:16:58;;;;;;;4.07;2.70;;;;;1.70;101305.00;;;;4921737;28;20229;-69
2022/04/11 04:19:44;;;;;;;7.33;3.70;;;;;1.60;101312.00;;;;4925151;28;20244;-68
2022/04/11 04:22:31;;;;;;;5.23;3.80;;;;;1.70;101309.00;;;;4924881;28;20236;-69
2022/04/11 04:25:17;;;;;;;6.80;3.43;;;;;1.60;101307.00;;;;4917437;28;20342;-67
2022/04/11 04:28:05;;;;;;;5.03;3.27;;;;;1.70;101307.00;;;;4912310;29;20225;-68
2022/04/11 04:30:52;;;;;;;3.90;2.77;;;;;1.60;101311.00;;;;4913084;28;20346;-69
2022/04/11 04:33:38;;;;;;;5.27;3.43;;;;;1.70;101307.00;;;;4927721;28;20743;-67
2022/04/11 04:36:24;;;;;;;5.73;2.73;;;;;1.70;101299.00;;;;4930524;28;20827;-69
2022/04/11 04:39:10;;;;;;;6.17;3.67;;;;;1.60;101314.00;;;;4922822;28;20260;-68
2022/04/11 04:41:57;;;;;;;6.43;3.83;;;;;1.60;101306.00;;;;4913676;28;20657;-68
2022/04/11 04:44:44;;;;;;;7.13;3.70;;;;;1.50;101310.00;;;;4929607;28;20308;-67
2022/04/11 04:47:31;;;;;;;6.37;3.40;;;;;1.50;101318.00;;;;4915427;28;20244;-70
2022/04/11 04:50:17;;;;;;;4.40;3.03;;;;;1.60;101319.00;;;;4927270;28;20711;-68
2022/04/11 04:53:03;;;;;;;5.00;2.87;;;;;1.50;101314.00;;;;4917280;28;20225;-68
2022/04/11 04:55:49;;;;;;;4.37;3.00;;;;;1.50;101315.00;;;;4911538;29;20350;-68
2022/04/11 04:58:36;;;;;;;4.87;3.20;;;;;1.60;101313.00;;;;4924474;28;20715;-70
2022/04/11 05:01:23;;;;;;;4.70;3.00;;;;;1.60;101317.00;;;;4922970;28;20236;-70
2022/04/11 05:04:09;;;;;;;5.47;3.40;;;;;1.60;101303.00;;;;4917992;28;20351;-68
2022/04/11 05:06:56;;;;;;;3.70;3.03;;;;;1.60;101301.00;;;;4911572;29;20611;-66
2022/04/11 05:09:42;;;;;;;6.00;3.00;;;;;1.50;101311.00;;;;4930834;28;20710;-66
2022/04/11 05:12:28;;;;;;;4.67;3.37;;;;;1.60;101306.00;;;;4923388;28;20586;-67
2022/04/11 05:15:15;;;;;;;3.60;3.30;;;;;1.60;101309.00;;;;4925365;28;20305;-68
2022/04/11 05:18:02;;;;;;;5.50;3.37;;;;;1.60;101299.00;;;;4918161;28;20866;-68
2022/04/11 05:20:51;;;;;;;6.03;3.73;;;;;1.60;101306.00;;;;4928738;28;20252;-68
2022/04/11 05:23:37;;;;;;;4.33;3.33;;;;;1.60;101308.00;;;;4924149;28;20276;-68
2022/04/11 05:26:24;;;;;;;4.47;3.33;;;;;1.60;101304.00;;;;4922167;28;20225;-67
2022/04/11 05:29:10;;;;;;;5.87;3.47;;;;;1.60;101306.00;;;;4929744;28;20373;-68
2022/04/11 05:31:56;;;;;;;7.13;3.73;;;;;1.60;101304.00;;;;4914277;29;20787;-69
2022/04/11 05:34:44;;;;;;;5.87;3.63;;;;;1.80;101305.00;;;;4912888;29;20237;-68
2022/04/11 05:37:30;;;;;;;4.17;3.33;;;;;1.80;101304.00;;;;4922323;28;20232;-69
2022/04/11 05:40:16;;;;;;;7.70;3.70;;;;;1.90;101308.00;;;;4929228;28;20253;-70
2022/04/11 05:43:04;;;;;;;5.33;4.13;;;;;2.00;101303.00;;;;4918830;28;20245;-70
2022/04/11 05:45:51;;;;;;;5.13;3.47;;;;;2.10;101305.00;;;;4918591;28;20237;-69
2022/04/11 05:48:38;;;;;;;6.10;3.90;;;;;2.20;101298.00;;;;4912946;29;20233;-68
2022/04/11 05:51:27;;;;;;;4.70;3.43;;;;;2.30;101304.00;;;;4924131;28;20245;-69
2022/04/11 05:54:14;;;;;;;4.97;3.30;;;;;2.40;101307.00;;;;4929362;28;20340;-69
2022/04/11 05:57:00;;;;;;;6.90;4.13;;;;;2.60;101307.00;;;;4929120;28;20227;-69
2022/04/11 05:59:46;;;;;;;6.53;4.03;;;;;2.80;101298.00;;;;4929581;28;20236;-68
2022/04/11 06:02:33;;;;;;;6.97;4.73;;;;;2.90;101301.00;;;;4922912;28;20365;-68
2022/04/11 06:05:19;;;;;;;7.27;3.53;;;;;3.00;101306.00;;;;4928896;28;20335;-69
2022/04/11 06:08:07;;;;;;;5.10;4.40;;;;;3.10;101298.00;;;;4928941;28;20232;-69
2022/04/11 06:10:54;;;;;;;7.00;4.70;;;;;3.20;101310.00;;;;4927466;28;20264;-68
2022/04/11 06:13:42;;;;;;;9.13;4.57;;;;;3.20;101302.00;;;;4928880;28;20613;-68
2022/04/11 06:16:29;;;;;;;7.33;5.17;;;;;3.30;101300.00;;;;4919117;28;20232;-69
2022/04/11 06:19:17;;;;;;;6.63;4.03;;;;;3.40;101292.00;;;;4915888;28;20243;-69
2022/04/11 06:22:03;;;;;;;11.20;4.77;;;;;3.40;101295.00;;;;4910222;29;20889;-69
2022/04/11 06:24:51;;;;;;;9.37;4.87;;;;;3.40;101301.00;;;;4910817;29;20241;-69
2022/04/11 06:27:38;;;;;;;7.10;4.03;;;;;3.50;101295.00;;;;4911575;29;20327;-70
2022/04/11 06:30:24;;;;;;;5.37;4.10;;;;;3.50;101295.00;;;;4910368;29;20300;-69
2022/04/11 06:33:10;;;;;;;6.87;4.53;;;;;3.50;101301.00;;;;4922015;28;20233;-69
2022/04/11 06:35:56;;;;;;;5.10;4.27;;;;;3.70;101306.00;;;;4912373;29;20242;-69
2022/04/11 06:38:43;;;;;;;7.03;4.70;;;;;3.80;101300.00;;;;4911945;28;20629;-69
2022/04/11 06:41:31;;;;;;;7.13;5.23;;;;;3.90;101295.00;;;;4910497;29;20237;-69
2022/04/11 06:44:17;;;;;;;12.90;5.03;;;;;4.10;101297.00;;;;4927548;28;20262;-68
2022/04/11 06:47:04;;;;;;;7.83;5.27;;;;;4.20;101308.00;;;;4910261;29;20233;-68
2022/04/11 06:49:50;;;;;;;6.30;4.87;;;;;4.30;101293.00;;;;4928482;28;20248;-69
2022/04/11 06:52:37;;;;;;;6.63;4.60;;;;;4.30;101282.00;;;;4909416;29;20297;-68
2022/04/11 06:55:23;;;;;;;6.43;4.47;;;;;4.50;101297.00;;;;4927716;28;20252;-70
2022/04/11 06:58:11;;;;;;;6.97;4.83;;;;;4.60;101300.00;;;;4917626;28;20236;-68
2022/04/11 07:00:57;;;;;;;8.50;5.40;;;;;4.70;101306.00;;;;4913472;29;20245;-67
2022/04/11 07:03:44;;;;;;;8.40;5.30;;;;;4.80;101303.00;;;;4924880;28;20262;-68
2022/04/11 07:06:30;;;;;;;9.23;5.37;;;;;5.00;101305.00;;;;4920380;28;20255;-69
2022/04/11 07:09:16;;;;;;;8.33;5.40;;;;;5.10;101305.00;;;;4915898;28;20730;-69
2022/04/11 07:12:03;;;;;;;7.40;5.27;;;;;5.40;101303.00;;;;4917567;28;20296;-69
2022/04/11 07:14:51;;;;;;;6.27;4.97;;;;;5.50;101308.00;;;;4923090;28;20236;-68
2022/04/11 07:17:38;;;;;;;9.27;5.13;;;;;5.50;101310.00;;;;4919966;28;20630;-69
2022/04/11 07:20:25;;;;;;;7.50;5.67;;;;;5.60;101301.00;;;;4919477;28;20317;-68
2022/04/11 07:23:11;;;;;;;7.07;4.93;;;;;5.90;101306.00;;;;4917365;28;20245;-69
2022/04/11 07:25:57;;;;;;;8.67;5.43;;;;;5.70;101302.00;;;;4927846;28;20384;-69
2022/04/11 07:28:46;;;;;;;6.93;5.00;;;;;5.70;101303.00;;;;4921934;28;20954;-70
2022/04/11 07:31:33;;;;;;;7.63;5.23;;;;;5.80;101312.00;;;;4927849;28;20687;-69
2022/04/11 07:34:20;;;;;;;7.77;4.57;;;;;6.00;101302.00;;;;4924817;28;20986;-68
2022/04/11 07:37:07;;;;;;;9.40;5.27;;;;;6.10;101310.00;;;;4924660;28;20233;-68
2022/04/11 07:39:53;;;;;;;10.37;5.30;;;;;6.20;101306.00;;;;4918797;28;20281;-69
2022/04/11 07:42:39;;;;;;;6.63;4.50;;;;;6.40;101300.00;;;;4914535;29;20917;-68
2022/04/11 07:45:26;;;;;;;7.90;4.37;;;;;6.50;101300.00;;;;4926582;28;20305;-68
2022/04/11 07:48:13;;;;;;;6.77;5.10;;;;;6.50;101295.00;;;;4918711;28;20248;-67
2022/04/11 07:51:00;;;;;;;5.70;4.57;;;;;6.50;101300.00;;;;4926163;28;20235;-68
2022/04/11 07:53:46;;;;;;;6.33;4.63;;;;;6.60;101309.00;;;;4923635;28;20244;-67
2022/04/11 07:56:32;;;;;;;11.50;4.60;;;;;6.90;101306.00;;;;4908052;29;20755;-68
2022/04/11 07:59:18;;;;;;;8.27;4.50;;;;;7.00;101311.00;;;;4909706;29;20236;-68
2022/04/11 08:02:05;;;;;;;8.83;5.13;;;;;7.20;101307.00;;;;4925214;28;20644;-68
2022/04/11 08:04:53;;;;;;;5.97;4.17;;;;;7.40;101309.00;;;;4917329;28;20235;-67
2022/04/11 08:07:39;;;;;;;8.10;4.30;;;;;7.50;101301.00;;;;4907794;29;20261;-67
2022/04/11 08:10:26;;;;;;;7.20;4.60;;;;;7.80;101307.00;;;;4907858;29;20876;-69
2022/04/11 08:13:12;;;;;;;5.87;4.37;;;;;8.00;101303.00;;;;4910425;28;20300;-65
2022/04/11 08:15:58;;;;;;;6.70;4.47;;;;;8.20;101301.00;;;;4909882;29;20229;-69
2022/04/11 08:18:45;;;;;;;4.63;4.13;;;;;8.40;101306.00;;;;4914062;28;20240;-70
2022/04/11 08:21:33;;;;;;;6.77;4.80;;;;;8.70;101299.00;;;;4914802;28;20365;-68
2022/04/11 08:24:19;;;;;;;6.20;4.80;;;;;8.70;101298.00;;;;4913779;28;20310;-67
2022/04/11 08:27:05;;;;;;;6.57;3.90;;;;;8.90;101287.00;;;;4909523;29;20309;-70
2022/04/11 08:29:51;;;;;;;4.80;3.93;;;;;9.10;101284.00;;;;4907995;29;20290;-69
2022/04/11 08:32:38;;;;;;;4.97;4.03;;;;;9.10;101273.00;;;;4919443;28;20233;-69
2022/04/11 08:35:26;;;;;;;4.17;3.40;;;;;9.40;101274.00;;;;4926803;28;20240;-69
2022/04/11 08:38:13;;;;;;;6.00;4.17;;;;;9.60;101272.00;;;;4925958;28;20235;-70
2022/04/11 08:41:02;;;;;;;8.90;4.20;;;;;9.90;101269.00;;;;4927300;28;20229;-68
2022/04/11 08:43:48;;;;;;;5.77;3.80;;;;;10.10;101249.00;;;;4921595;28;20246;-67
2022/04/11 08:46:36;;;;;;;4.10;3.30;;;;;10.50;101270.00;;;;4916106;28;20304;-67
2022/04/11 08:49:22;;;;;;;5.07;3.90;;;;;10.60;101266.00;;;;4909119;29;20611;-70
2022/04/11 08:52:09;;;;;;;4.77;3.77;;;;;10.70;101254.00;;;;4925927;28;20799;-68
2022/04/11 08:54:56;;;;;;;3.97;3.23;;;;;11.00;101257.00;;;;4912833;28;20915;-69
2022/04/11 08:57:49;;;;;;;5.60;3.30;;;;;11.20;101255.00;;;;4909779;29;20310;-68
2022/04/11 09:00:35;;;;;;;4.50;3.50;;;;;11.30;101256.00;;;;4919046;28;20863;-68
2022/04/11 09:03:21;;;;;;;4.17;3.10;;;;;11.40;101256.00;;;;4926498;28;20247;-68
2022/04/11 09:06:09;;;;;;;4.53;3.23;;;;;11.60;101227.00;;;;4927752;28;20236;-70
2022/04/11 09:08:56;;;;;;;3.20;2.90;;;;;11.80;101246.00;;;;4916455;28;20833;-70
2022/04/11 09:11:44;;;;;;;4.43;3.10;;;;;11.90;101249.00;;;;4923062;28;20945;-70
2022/04/11 09:14:32;;;;;;;4.47;2.80;;;;;12.20;101253.00;;;;4927546;28;20320;-70
2022/04/11 09:17:18;;;;;;;3.13;2.50;;;;;12.40;101255.00;;;;4921556;28;20237;-70
2022/04/11 09:20:11;;;;;;;5.27;2.53;;;;;12.40;101259.00;;;;4926130;28;20256;-72
2022/04/11 09:23:00;;;;;;;4.53;3.00;;;;;12.50;101259.00;;;;4921085;28;20281;-65
2022/04/11 09:25:46;;;;;;;3.50;2.90;;;;;12.40;101255.00;;;;4923305;28;20240;-69
2022/04/11 09:28:36;;;;;;;6.73;2.77;;;;;12.80;101240.00;;;;4915917;29;20316;-69
2022/04/11 09:31:23;;;;;;;3.07;2.50;;;;;12.70;101245.00;;;;4914307;28;20233;-69
2022/04/11 09:34:17;;;;;;;4.23;2.90;;;;;12.70;101234.00;;;;4917890;28;20253;-69
2022/04/11 09:37:04;;;;;;;16.67;3.70;;;;;13.10;101235.00;;;;4909974;29;20323;-68
2022/04/11 09:39:56;;;;;;;6.70;3.10;;;;;13.30;101233.00;;;;4912900;28;20288;-65
2022/04/11 09:42:42;;;;;;;3.63;2.83;;;;;13.30;101233.00;;;;4916450;28;20248;-67
2022/04/11 09:45:30;;;;;;;4.07;3.00;;;;;13.40;101229.00;;;;4929300;28;20245;-68
2022/04/11 09:48:19;;;;;;;3.77;2.90;;;;;13.40;101223.00;;;;4928972;28;20288;-70
2022/04/11 09:51:10;;;;;;;3.97;3.07;;;;;13.50;101228.00;;;;4930049;28;20248;-70
2022/04/11 09:53:56;;;;;;;5.27;3.00;;;;;13.70;101214.00;;;;4925705;28;20236;-70
2022/04/11 09:56:43;;;;;;;4.20;3.17;;;;;13.60;101227.00;;;;4919527;28;20900;-69
2022/04/11 09:59:29;;;;;;;3.77;2.87;;;;;13.80;101212.00;;;;4925786;28;20737;-69
2022/04/11 10:02:26;;;;;;;6.10;3.00;;;;;13.80;101216.00;;;;4915017;28;20252;-68
2022/04/11 10:05:13;;;;;;;5.60;3.20;;;;;13.90;101220.00;;;;4914410;29;20233;-67
2022/04/11 10:08:00;;;;;;;5.63;2.93;;;;;14.10;101218.00;;;;4911607;28;20293;-69
2022/04/11 10:10:47;;;;;;;5.63;2.97;;;;;14.20;101211.00;;;;4920042;28;20238;-69
2022/04/11 10:13:37;;;;;;;4.43;2.80;;;;;14.00;101202.00;;;;4920809;28;20852;-67
2022/04/11 10:16:24;;;;;;;2.93;2.53;;;;;14.00;101201.00;;;;4917304;28;20295;-68
2022/04/11 10:19:12;;;;;;;4.03;2.90;;;;;14.30;101199.00;;;;4914826;29;20250;-68
2022/04/11 10:22:12;;;;;;;7.23;2.73;;;;;14.60;101195.00;;;;4912484;29;20301;-67
2022/04/11 10:25:04;;;;;;;4.63;3.00;;;;;14.70;101193.00;;;;4923376;28;20229;-67
2022/04/11 10:28:15;;;;;;;5.97;3.40;;;;;14.80;101191.00;;;;4921751;28;20245;-68
2022/04/11 10:31:09;;;;;;;4.40;2.70;;;;;14.90;101200.00;;;;4915129;28;20370;-69
2022/04/11 10:33:57;;;;;;;5.33;3.10;;;;;15.00;101201.00;;;;4909777;29;20233;-67
2022/04/11 10:36:56;;;;;;;4.17;3.00;;;;;15.00;101185.00;;;;4921249;28;20241;-67
2022/04/11 10:39:44;;;;;;;3.20;2.90;;;;;15.00;101193.00;;;;4920684;28;20236;-64
2022/04/11 10:42:30;;;;;;;8.50;3.00;;;;;15.20;101194.00;;;;4919303;28;20263;-68
2022/04/11 10:45:29;;;;;;;4.90;3.20;;;;;15.30;101186.00;;;;4928512;28;20228;-68
2022/04/11 10:48:17;;;;;;;3.70;3.10;;;;;15.20;101193.00;;;;4922593;28;20744;-68
2022/04/11 10:51:15;;;;;;;5.47;2.93;;;;;15.40;101191.00;;;;4917581;28;20681;-67
2022/04/11 10:54:21;;;;;;;5.80;3.20;;;;;15.60;101184.00;;;;4918567;28;20744;-68
2022/04/11 10:57:34;;;;;;;3.83;2.97;;;;;15.50;101179.00;;;;4921403;28;20375;-67
2022/04/11 11:00:22;;;;;;;6.13;2.97;;;;;15.70;101187.00;;;;4923584;28;20237;-68
2022/04/11 11:03:13;;;;;;;6.37;3.30;;;;;15.70;101182.00;;;;4923779;28;20249;-67
2022/04/11 11:06:17;;;;;;;3.97;2.80;;;;;15.80;101173.00;;;;4928150;28;20242;-65
2022/04/11 11:09:15;;;;;;;4.57;2.80;;;;;16.10;101170.00;;;;4925726;28;20836;-67
2022/04/11 11:12:19;;;;;;;5.53;2.73;;;;;16.20;101180.00;;;;4920402;28;20258;-69
2022/04/11 11:15:27;;;;;;;4.50;3.10;;;;;16.10;101170.00;;;;4920618;28;20261;-68
2022/04/11 11:18:13;;;;;;;5.37;3.17;;;;;16.20;101173.00;;;;4920261;28;20236;-68
2022/04/11 11:21:05;;;;;;;3.50;2.73;;;;;16.10;101171.00;;;;4920692;28;20659;-66
2022/04/11 11:24:10;;;;;;;4.70;3.53;;;;;16.00;101172.00;;;;4914662;29;20247;-67
2022/04/11 11:27:00;;;;;;;4.57;3.00;;;;;16.10;101157.00;;;;4919437;28;20238;-67
2022/04/11 11:29:47;;;;;;;10.37;3.63;;;;;16.10;101151.00;;;;4920106;28;20241;-68
2022/04/11 11:32:34;;;;;;;4.43;3.40;;;;;16.50;101151.00;;;;4921870;28;20261;-66
2022/04/11 11:35:20;;;;;;;7.97;2.73;;;;;16.70;101148.00;;;;4920779;28;20773;-65
2022/04/11 11:38:06;;;;;;;4.90;3.27;;;;;16.80;101134.00;;;;4930863;28;20371;-67
2022/04/11 11:40:57;;;;;;;4.37;3.20;;;;;16.70;101136.00;;;;4920113;28;20383;-68
2022/04/11 11:43:44;;;;;;;4.73;3.27;;;;;16.60;101129.00;;;;4921175;28;20930;-68
2022/04/11 11:46:32;;;;;;;4.37;3.30;;;;;16.80;101130.00;;;;4913447;28;20237;-68
2022/04/11 11:49:18;;;;;;;3.30;2.93;;;;;17.00;101133.00;;;;4908224;29;20239;-67
2022/04/11 11:52:10;;;;;;;4.83;3.10;;;;;17.00;101125.00;;;;4924185;28;20275;-68
2022/04/11 11:54:56;;;;;;;5.43;3.60;;;;;17.10;101131.00;;;;4923230;28;20312;-68
2022/04/11 11:57:42;;;;;;;4.73;3.20;;;;;17.00;101130.00;;;;4926661;28;20243;-68
2022/04/11 12:00:34;;;;;;;3.97;3.47;;;;;17.00;101119.00;;;;4927014;28;20365;-68
2022/04/11 12:06:27;;;;;;;4.27;3.27;;;;;16.90;101116.00;;;;4919676;29;20234;-67
2022/04/11 12:09:13;;;;;;;5.67;3.20;;;;;17.50;101119.00;;;;4929052;28;20357;-66
2022/04/11 12:12:00;;;;;;;3.73;2.90;;;;;17.70;101114.00;;;;4918456;28;20924;-68
2022/04/11 12:15:00;;;;;;;4.90;3.00;;;;;17.50;101108.00;;;;4930585;28;20240;-67
2022/04/11 12:17:49;;;;;;;5.60;3.57;;;;;17.60;101099.00;;;;4926616;28;20288;-67
2022/04/11 12:20:38;;;;;;;4.30;3.33;;;;;17.40;101089.00;;;;4908548;29;21053;-67
2022/04/11 12:23:25;;;;;;;4.37;3.30;;;;;17.40;101082.00;;;;4917742;28;20285;-67
2022/04/11 12:26:11;;;;;;;7.17;3.40;;;;;17.10;101090.00;;;;4925743;28;20697;-66
2022/04/11 12:28:57;;;;;;;6.07;3.43;;;;;17.00;101085.00;;;;4920706;28;20280;-67
2022/04/11 12:31:54;;;;;;;5.20;3.53;;;;;17.40;101073.00;;;;4926232;28;20876;-67
2022/04/11 12:34:43;;;;;;;6.37;3.60;;;;;17.60;101082.00;;;;4926695;28;20236;-67
2022/04/11 12:37:46;;;;;;;5.20;3.40;;;;;17.70;101082.00;;;;4925802;28;20232;-67
2022/04/11 12:40:43;;;;;;;7.00;4.30;;;;;17.90;101066.00;;;;4920515;28;20289;-68
2022/04/11 12:44:17;;;;;;;4.87;3.77;;;;;17.80;101070.00;;;;4933102;28;20853;-69
2022/04/11 12:47:07;;;;;;;6.83;4.00;;;;;17.80;101068.00;;;;4929311;28;20237;-68
2022/04/11 12:49:54;;;;;;;5.00;3.60;;;;;17.60;101058.00;;;;4921640;28;20253;-68
2022/04/11 12:52:45;;;;;;;6.77;3.63;;;;;17.60;101056.00;;;;4925861;28;20304;-69
2022/04/11 12:55:33;;;;;;;4.93;3.63;;;;;17.80;101045.00;;;;4922739;28;20362;-69
2022/04/11 12:58:21;;;;;;;3.50;3.20;;;;;17.80;101048.00;;;;4911722;29;20238;-68
2022/04/11 13:01:08;;;;;;;5.47;3.70;;;;;17.60;101041.00;;;;4925064;28;20232;-65
2022/04/11 13:03:54;;;;;;;6.27;3.63;;;;;17.90;101050.00;;;;4929965;28;20260;-68
2022/04/11 13:06:41;;;;;;;7.10;3.67;;;;;17.80;101035.00;;;;4923278;28;20285;-68
2022/04/11 13:09:29;;;;;;;6.47;4.10;;;;;17.60;101027.00;;;;4910863;29;20237;-68
2022/04/11 13:12:18;;;;;;;4.73;3.47;;;;;17.60;101045.00;;;;4913448;29;20743;-68
2022/04/11 13:15:07;;;;;;;5.93;3.70;;;;;18.00;101034.00;;;;4911298;29;20237;-69
2022/04/11 13:20:57;;;;;;;7.90;4.07;;;;;18.40;101023.00;;;;4913250;29;20250;-68
2022/04/11 13:23:44;;;;;;;8.37;4.17;;;;;18.60;101019.00;;;;4910554;29;20313;-68
2022/04/11 13:26:31;;;;;;;8.43;4.70;;;;;18.70;101012.00;;;;4910518;29;20297;-68
2022/04/11 13:29:18;;;;;;;8.93;5.00;;;;;18.50;101010.00;;;;4917453;28;20232;-68
2022/04/11 13:32:05;;;;;;;5.30;3.83;;;;;18.40;101015.00;;;;4923696;28;20264;-69
2022/04/11 13:34:52;;;;;;;6.30;3.90;;;;;19.20;101000.00;;;;4922211;28;20749;-68
2022/04/11 13:37:40;;;;;;;5.90;3.97;;;;;19.30;101002.00;;;;4920600;28;20300;-68
2022/04/11 13:40:27;;;;;;;8.97;5.60;;;;;19.30;100999.00;;;;4922880;28;20237;-68
2022/04/11 13:43:15;;;;;;;12.50;8.63;;;;;19.20;100990.00;;;;4925838;28;20311;-69
2022/04/11 13:46:02;;;;;;;7.77;4.60;;;;;19.40;100997.00;;;;4922729;28;20754;-65
2022/04/11 13:48:49;;;;;;;4.43;3.40;;;;;19.40;100996.00;;;;4926643;28;20241;-68
2022/04/11 13:51:37;;;;;;;5.30;3.33;;;;;19.30;100990.00;;;;4929018;28;20304;-69
2022/04/11 13:54:42;;;;;;;3.77;3.27;;;;;19.20;100984.00;;;;4928022;28;20408;-68
2022/04/11 13:57:29;;;;;;;5.33;3.80;;;;;19.20;100982.00;;;;4928446;28;20377;-68
2022/04/11 14:00:24;;;;;;;5.53;3.57;;;;;19.10;100985.00;;;;4921720;28;20713;-69
2022/04/11 14:03:12;;;;;;;5.90;3.83;;;;;19.10;100986.00;;;;4923722;28;20253;-68